createdAt,value
2016-08-04T00:00:15.946Z,17.44
2016-08-04T00:01:16.621Z,17.52
2016-08-04T00:02:15.887Z,17.51
2016-08-04T00:03:15.159Z,17.43
2016-08-04T00:04:16.532Z,17.46
2016-08-04T00:05:16.492Z,17.49
2016-08-04T00:06:16.459Z,17.44
2016-08-04T00:07:16.430Z,17.51
2016-08-04T00:08:16.417Z,17.37
2016-08-04T00:09:15.671Z,17.52
2016-08-04T00:10:16.336Z,17.43
2016-08-04T00:11:16.306Z,17.37
2016-08-04T00:12:15.589Z,17.44
2016-08-04T00:13:15.554Z,17.31
2016-08-04T00:14:16.215Z,17.44
2016-08-04T00:15:15.488Z,17.31
2016-08-04T00:16:15.462Z,17.4
2016-08-04T00:17:15.424Z,17.34
2016-08-04T00:18:15.399Z,17.38
2016-08-04T00:19:15.365Z,17.34
2016-08-04T00:20:16.032Z,17.34
2016-08-04T00:21:15.997Z,17.33
2016-08-04T00:22:15.971Z,17.33
2016-08-04T00:23:15.939Z,17.25
2016-08-04T00:24:15.213Z,17.23
2016-08-04T00:25:15.878Z,17.26
2016-08-04T00:26:15.161Z,17.21
2016-08-04T00:27:15.125Z,17.19
2016-08-04T00:28:15.785Z,17.21
2016-08-04T00:29:15.063Z,17.25
2016-08-04T00:30:15.728Z,17.22
2016-08-04T00:31:15.690Z,17.23
2016-08-04T00:32:15.660Z,17.21
2016-08-04T00:33:15.635Z,17.21
2016-08-04T00:34:15.603Z,17.14
2016-08-04T00:35:15.568Z,17.16
2016-08-04T00:36:15.549Z,17.12
2016-08-04T00:37:15.505Z,17.12
2016-08-04T00:38:15.476Z,17.11
2016-08-04T00:39:14.054Z,17.04
2016-08-04T00:40:15.417Z,17.14
2016-08-04T00:41:15.383Z,17.18
2016-08-04T00:42:14.658Z,17.16
2016-08-04T00:43:13.930Z,17.04
2016-08-04T00:44:15.290Z,17.06
2016-08-04T00:45:15.260Z,17.07
2016-08-04T00:46:15.237Z,17.01
2016-08-04T00:47:15.196Z,17.15
2016-08-04T00:48:14.473Z,17.06
2016-08-04T00:49:15.142Z,17.07
2016-08-04T00:50:14.409Z,16.98
2016-08-04T00:51:15.082Z,16.98
2016-08-04T00:52:13.653Z,16.96
2016-08-04T00:53:15.027Z,16.93
2016-08-04T00:54:14.981Z,17
2016-08-04T00:55:14.258Z,16.91
2016-08-04T00:56:13.532Z,16.93
2016-08-04T00:57:14.891Z,16.86
2016-08-04T00:58:14.860Z,16.82
2016-08-04T00:59:14.832Z,16.78
2016-08-04T01:00:14.798Z,16.85
2016-08-04T01:01:14.772Z,16.83
2016-08-04T01:02:14.735Z,16.73
2016-08-04T01:03:14.009Z,16.76
2016-08-04T01:04:14.682Z,16.71
2016-08-04T01:05:13.954Z,16.75
2016-08-04T01:06:14.612Z,16.68
2016-08-04T01:07:14.581Z,16.66
2016-08-04T01:08:14.551Z,16.7
2016-08-04T01:09:13.832Z,16.66
2016-08-04T01:10:14.497Z,16.64
2016-08-04T01:11:14.463Z,16.53
2016-08-04T01:12:14.433Z,16.6
2016-08-04T01:13:13.705Z,16.56
2016-08-04T01:14:14.364Z,16.5
2016-08-04T01:15:13.635Z,16.52
2016-08-04T01:16:14.308Z,16.5
2016-08-04T01:17:14.270Z,16.46
2016-08-04T01:18:13.543Z,16.43
2016-08-04T01:19:13.516Z,16.41
2016-08-04T01:20:14.184Z,16.49
2016-08-04T01:21:14.145Z,16.46
2016-08-04T01:22:14.116Z,16.39
2016-08-04T01:23:13.392Z,16.42
2016-08-04T01:24:14.055Z,16.38
2016-08-04T01:25:14.030Z,16.33
2016-08-04T01:26:13.295Z,16.31
2016-08-04T01:27:13.959Z,16.34
2016-08-04T01:28:13.932Z,16.33
2016-08-04T01:29:13.899Z,16.34
2016-08-04T01:30:12.472Z,16.35
2016-08-04T01:31:13.152Z,16.34
2016-08-04T01:32:13.107Z,16.25
2016-08-04T01:33:13.780Z,16.3
2016-08-04T01:34:13.741Z,16.34
2016-08-04T01:35:13.025Z,16.25
2016-08-04T01:36:12.980Z,16.27
2016-08-04T01:37:13.643Z,16.2
2016-08-04T01:38:12.228Z,16.25
2016-08-04T01:39:13.592Z,16.28
2016-08-04T01:40:13.557Z,16.23
2016-08-04T01:41:12.825Z,16.25
2016-08-04T01:42:13.498Z,16.27
2016-08-04T01:43:13.471Z,16.3
2016-08-04T01:44:13.440Z,16.25
2016-08-04T01:45:13.406Z,16.25
2016-08-04T01:46:13.363Z,16.27
2016-08-04T01:47:13.332Z,16.35
2016-08-04T01:48:13.302Z,16.23
2016-08-04T01:49:13.271Z,16.33
2016-08-04T01:50:13.241Z,16.33
2016-08-04T01:51:12.511Z,16.33
2016-08-04T01:52:12.480Z,16.3
2016-08-04T01:53:12.455Z,16.42
2016-08-04T01:54:13.118Z,16.42
2016-08-04T01:55:13.082Z,16.34
2016-08-04T01:56:13.052Z,16.39
2016-08-04T01:57:13.025Z,16.35
2016-08-04T01:58:12.992Z,16.39
2016-08-04T01:59:12.958Z,16.34
2016-08-04T02:00:11.532Z,16.33
2016-08-04T02:01:12.900Z,16.33
2016-08-04T02:02:12.873Z,16.27
2016-08-04T02:03:12.832Z,16.27
2016-08-04T02:04:12.800Z,16.21
2016-08-04T02:05:12.307Z,16.21
2016-08-04T02:06:12.040Z,16.08
2016-08-04T02:07:12.712Z,16.24
2016-08-04T02:08:12.676Z,16.24
2016-08-04T02:09:12.645Z,16.17
2016-08-04T02:10:12.614Z,16.15
2016-08-04T02:11:12.580Z,16.17
2016-08-04T02:12:12.556Z,16.08
2016-08-04T02:13:12.519Z,16.08
2016-08-04T02:14:12.492Z,16.07
2016-08-04T02:15:11.767Z,16.11
2016-08-04T02:16:12.422Z,16.04
2016-08-04T02:17:11.001Z,16.07
2016-08-04T02:18:11.671Z,16.02
2016-08-04T02:19:12.338Z,16
2016-08-04T02:21:12.270Z,15.89
2016-08-04T02:22:12.236Z,15.84
2016-08-04T02:23:12.207Z,15.84
2016-08-04T02:24:11.478Z,15.8
2016-08-04T02:25:11.439Z,15.72
2016-08-04T02:26:10.714Z,15.76
2016-08-04T02:27:11.380Z,15.69
2016-08-04T02:28:11.350Z,15.82
2016-08-04T02:29:12.015Z,15.75
2016-08-04T02:30:11.988Z,15.78
2016-08-04T02:31:11.255Z,15.71
2016-08-04T02:32:11.226Z,15.65
2016-08-04T02:33:11.191Z,15.6
2016-08-04T02:34:11.175Z,15.57
2016-08-04T02:35:11.823Z,15.59
2016-08-04T02:36:11.791Z,15.65
2016-08-04T02:37:11.767Z,15.64
2016-08-04T02:38:11.735Z,15.64
2016-08-04T02:39:11.703Z,15.64
2016-08-04T02:40:11.674Z,15.59
2016-08-04T02:41:11.635Z,15.62
2016-08-04T02:42:10.206Z,15.62
2016-08-04T02:43:11.574Z,15.6
2016-08-04T02:44:11.550Z,15.6
2016-08-04T02:45:11.508Z,15.53
2016-08-04T02:46:11.483Z,15.51
2016-08-04T02:47:11.442Z,15.54
2016-08-04T02:48:10.719Z,15.53
2016-08-04T02:49:11.382Z,15.51
2016-08-04T02:50:11.346Z,15.5
2016-08-04T02:51:10.623Z,15.5
2016-08-04T02:52:09.896Z,15.49
2016-08-04T02:53:10.555Z,15.56
2016-08-04T02:54:11.217Z,15.5
2016-08-04T02:55:10.493Z,15.54
2016-08-04T02:56:11.165Z,15.53
2016-08-04T02:57:10.429Z,15.5
2016-08-04T02:58:10.403Z,15.57
2016-08-04T02:59:10.369Z,15.49
2016-08-04T03:00:11.035Z,15.46
2016-08-04T03:01:10.307Z,15.47
2016-08-04T03:02:10.276Z,15.54
2016-08-04T03:03:10.995Z,15.47
2016-08-04T03:04:10.207Z,15.54
2016-08-04T03:05:10.872Z,15.56
2016-08-04T03:06:10.143Z,15.59
2016-08-04T03:07:10.818Z,15.51
2016-08-04T03:08:10.080Z,15.5
2016-08-04T03:09:10.743Z,15.54
2016-08-04T03:10:10.031Z,15.54
2016-08-04T03:11:09.984Z,15.6
2016-08-04T03:12:09.951Z,15.56
2016-08-04T03:13:10.616Z,15.49
2016-08-04T03:14:10.594Z,15.54
2016-08-04T03:15:10.554Z,15.46
2016-08-04T03:16:10.520Z,15.47
2016-08-04T03:17:09.796Z,15.5
2016-08-04T03:18:10.460Z,15.49
2016-08-04T03:19:09.734Z,15.47
2016-08-04T03:20:09.694Z,15.38
2016-08-04T03:21:10.359Z,15.41
2016-08-04T03:22:10.329Z,15.36
2016-08-04T03:23:10.303Z,15.35
2016-08-04T03:24:10.270Z,15.34
2016-08-04T03:25:09.541Z,15.38
2016-08-04T03:26:09.504Z,15.39
2016-08-04T03:27:10.170Z,15.35
2016-08-04T03:28:10.139Z,15.31
2016-08-04T03:29:10.110Z,15.38
2016-08-04T03:30:10.072Z,15.21
2016-08-04T03:31:10.049Z,15.29
2016-08-04T03:32:10.015Z,15.34
2016-08-04T03:33:09.980Z,15.28
2016-08-04T03:34:09.946Z,15.19
2016-08-04T03:35:09.221Z,15.16
2016-08-04T03:36:09.188Z,15.25
2016-08-04T03:37:09.847Z,15.19
2016-08-04T03:38:09.822Z,15.23
2016-08-04T03:39:09.787Z,15.21
2016-08-04T03:40:09.755Z,15.2
2016-08-04T03:41:09.726Z,15.2
2016-08-04T03:42:09.693Z,15.17
2016-08-04T03:43:08.965Z,15.11
2016-08-04T03:44:09.636Z,15.1
2016-08-04T03:45:08.202Z,15.28
2016-08-04T03:46:08.865Z,15.11
2016-08-04T03:47:08.840Z,15.16
2016-08-04T03:48:09.498Z,15.19
2016-08-04T03:49:09.474Z,15.17
2016-08-04T03:50:08.738Z,15.03
2016-08-04T03:51:09.429Z,15.07
2016-08-04T03:52:08.686Z,15.07
2016-08-04T03:53:09.338Z,15.11
2016-08-04T03:54:09.301Z,15.1
2016-08-04T03:55:08.576Z,15.07
2016-08-04T03:56:09.244Z,15.11
2016-08-04T03:57:08.518Z,15.03
2016-08-04T03:58:08.484Z,15.03
2016-08-04T03:59:08.456Z,15.09
2016-08-04T04:00:09.118Z,15.01
2016-08-04T04:01:09.095Z,15.01
2016-08-04T04:02:09.051Z,15.03
2016-08-04T04:03:09.028Z,15.06
2016-08-04T04:04:08.988Z,14.94
2016-08-04T04:05:08.262Z,15.09
2016-08-04T04:06:08.917Z,14.98
2016-08-04T04:07:08.900Z,14.95
2016-08-04T04:08:08.859Z,15.02
2016-08-04T04:09:08.829Z,14.96
2016-08-04T04:10:08.098Z,14.95
2016-08-04T04:11:08.070Z,14.94
2016-08-04T04:12:08.733Z,14.95
2016-08-04T04:13:08.701Z,14.95
2016-08-04T04:14:08.664Z,14.94
2016-08-04T04:15:08.654Z,14.99
2016-08-04T04:16:08.598Z,14.94
2016-08-04T04:17:08.569Z,14.94
2016-08-04T04:18:08.538Z,14.96
2016-08-04T04:19:08.503Z,14.94
2016-08-04T04:20:08.473Z,15.02
2016-08-04T04:21:08.450Z,15.01
2016-08-04T04:22:08.413Z,15.1
2016-08-04T04:23:07.685Z,15.01
2016-08-04T04:24:07.650Z,15.1
2016-08-04T04:25:07.620Z,15.13
2016-08-04T04:26:08.284Z,15.14
2016-08-04T04:27:08.249Z,15.19
2016-08-04T04:28:08.216Z,15.14
2016-08-04T04:29:07.492Z,15.13
2016-08-04T04:30:08.155Z,15.21
2016-08-04T04:31:08.124Z,15.16
2016-08-04T04:32:08.085Z,15.19
2016-08-04T04:33:08.054Z,15.17
2016-08-04T04:34:06.633Z,15.25
2016-08-04T04:35:07.995Z,15.31
2016-08-04T04:36:07.961Z,15.32
2016-08-04T04:37:07.939Z,15.34
2016-08-04T04:38:07.199Z,15.34
2016-08-04T04:39:07.870Z,15.47
2016-08-04T04:40:07.835Z,15.44
2016-08-04T04:41:07.106Z,15.39
2016-08-04T04:42:07.771Z,15.49
2016-08-04T04:43:07.745Z,15.47
2016-08-04T04:44:07.710Z,15.51
2016-08-04T04:45:06.984Z,15.46
2016-08-04T04:46:06.958Z,15.49
2016-08-04T04:47:06.916Z,15.62
2016-08-04T04:48:06.188Z,15.64
2016-08-04T04:49:07.550Z,15.64
2016-08-04T04:50:07.516Z,15.71
2016-08-04T04:51:07.478Z,15.74
2016-08-04T04:52:06.755Z,15.68
2016-08-04T04:53:07.417Z,15.75
2016-08-04T04:54:06.685Z,15.8
2016-08-04T04:55:07.360Z,15.9
2016-08-04T04:56:07.322Z,16.07
2016-08-04T04:57:07.292Z,16.23
2016-08-04T04:58:07.275Z,16.34
2016-08-04T04:59:07.227Z,16.52
2016-08-04T05:00:06.502Z,16.73
2016-08-04T05:01:06.467Z,16.98
2016-08-04T05:02:07.135Z,17.21
2016-08-04T05:03:07.102Z,17.43
2016-08-04T05:04:07.076Z,17.58
2016-08-04T05:05:07.040Z,17.84
2016-08-04T05:06:07.008Z,18.12
2016-08-04T05:07:06.982Z,18.3
2016-08-04T05:08:06.254Z,18.54
2016-08-04T05:09:06.923Z,18.8
2016-08-04T05:10:06.891Z,19.06
2016-08-04T05:11:06.864Z,19.23
2016-08-04T05:12:06.833Z,19.59
2016-08-04T05:13:06.801Z,19.74
2016-08-04T05:14:06.776Z,19.94
2016-08-04T05:15:06.756Z,20.28
2016-08-04T05:16:06.013Z,20.47
2016-08-04T05:17:06.686Z,20.67
2016-08-04T05:18:06.670Z,20.94
2016-08-04T05:19:06.632Z,21.06
2016-08-04T05:20:05.905Z,21.34
2016-08-04T05:21:05.181Z,21.64
2016-08-04T05:22:06.548Z,21.91
2016-08-04T05:23:06.521Z,22.1
2016-08-04T05:24:06.494Z,22.24
2016-08-04T05:25:05.765Z,22.51
2016-08-04T05:26:05.745Z,22.67
2016-08-04T05:27:06.415Z,22.86
2016-08-04T05:28:05.687Z,23.19
2016-08-04T05:29:06.359Z,23.28
2016-08-04T05:30:04.946Z,23.53
2016-08-04T05:31:06.301Z,23.73
2016-08-04T05:32:06.278Z,23.98
2016-08-04T05:33:05.558Z,24.15
2016-08-04T05:34:05.534Z,24.32
2016-08-04T05:35:06.209Z,24.62
2016-08-04T05:37:06.158Z,25.03
2016-08-04T05:38:06.125Z,25.24
2016-08-04T05:39:05.410Z,25.39
2016-08-04T05:40:06.073Z,25.5
2016-08-04T05:41:06.061Z,25.65
2016-08-04T05:42:06.041Z,25.82
2016-08-04T05:43:05.316Z,25.97
2016-08-04T05:44:05.285Z,26.21
2016-08-04T05:45:05.957Z,26.36
2016-08-04T05:46:05.235Z,26.55
2016-08-04T05:47:05.915Z,26.69
2016-08-04T05:48:05.884Z,26.82
2016-08-04T05:49:05.860Z,27.04
2016-08-04T05:50:05.851Z,27.28
2016-08-04T05:52:05.804Z,27.67
2016-08-04T05:53:05.775Z,27.82
2016-08-04T05:54:05.751Z,28.03
2016-08-04T05:55:05.032Z,28.3
2016-08-04T05:56:05.701Z,28.55
2016-08-04T05:57:05.682Z,28.8
2016-08-04T05:58:05.661Z,29.05
2016-08-04T05:59:05.643Z,29.27
2016-08-04T06:00:04.923Z,29.39
2016-08-04T06:01:04.898Z,29.52
2016-08-04T06:02:05.571Z,29.7
2016-08-04T06:03:05.557Z,29.92
2016-08-04T06:04:05.523Z,30.2
2016-08-04T06:05:05.505Z,30.42
2016-08-04T06:06:05.486Z,30.51
2016-08-04T06:07:04.766Z,30.73
2016-08-04T06:08:05.441Z,30.79
2016-08-04T06:09:05.437Z,30.69
2016-08-04T06:10:04.707Z,30.79
2016-08-04T06:11:05.379Z,30.7
2016-08-04T06:12:05.356Z,30.7
2016-08-04T06:13:04.640Z,30.72
2016-08-04T06:14:05.320Z,30.83
2016-08-04T06:15:05.291Z,31.01
2016-08-04T06:16:04.577Z,31.13
2016-08-04T06:17:05.256Z,31.48
2016-08-04T06:18:05.234Z,31.66
2016-08-04T06:19:05.214Z,31.66
2016-08-04T06:20:04.494Z,31.72
2016-08-04T06:21:04.498Z,31.5
2016-08-04T06:22:05.149Z,31.41
2016-08-04T06:23:05.131Z,31.58
2016-08-04T06:24:04.439Z,31.73
2016-08-04T06:25:05.105Z,31.85
2016-08-04T06:26:04.384Z,31.84
2016-08-04T06:27:03.673Z,31.62
2016-08-04T06:28:05.044Z,31.73
2016-08-04T06:29:05.013Z,31.85
2016-08-04T06:30:04.997Z,31.96
2016-08-04T06:31:04.974Z,31.85
2016-08-04T06:32:04.954Z,31.93
2016-08-04T06:33:04.934Z,32
2016-08-04T06:34:03.520Z,32.23
2016-08-04T06:35:04.198Z,32.44
2016-08-04T06:36:04.875Z,32.72
2016-08-04T06:37:04.862Z,33.07
2016-08-04T06:38:04.833Z,33.5
2016-08-04T06:39:04.816Z,33.75
2016-08-04T06:40:04.795Z,33.98
2016-08-04T06:41:04.778Z,34.03
2016-08-04T06:42:04.754Z,34.09
2016-08-04T06:43:04.037Z,34.22
2016-08-04T06:44:04.024Z,34.4
2016-08-04T06:45:04.007Z,34.62
2016-08-04T06:46:03.988Z,34.81
2016-08-04T06:47:03.971Z,34.62
2016-08-04T06:48:04.640Z,34.65
2016-08-04T06:49:04.627Z,34.89
2016-08-04T06:50:04.606Z,35.09
2016-08-04T06:51:04.587Z,35.34
2016-08-04T06:52:03.874Z,35.59
2016-08-04T06:53:04.548Z,36.01
2016-08-04T06:54:03.833Z,36.27
2016-08-04T06:55:04.515Z,36.5
2016-08-04T06:56:04.494Z,36.73
2016-08-04T06:57:04.483Z,37.06
2016-08-04T06:58:03.760Z,37.24
2016-08-04T06:59:04.447Z,37.37
2016-08-04T07:00:03.722Z,37.55
2016-08-04T07:01:03.713Z,37.74
2016-08-04T07:02:04.387Z,38.11
2016-08-04T07:03:04.371Z,38.35
2016-08-04T07:04:04.347Z,38.47
2016-08-04T07:05:03.632Z,38.59
2016-08-04T07:06:04.314Z,38.6
2016-08-04T07:07:04.294Z,38.71
2016-08-04T07:08:04.277Z,38.96
2016-08-04T07:09:03.568Z,39.07
2016-08-04T07:10:04.246Z,39.28
2016-08-04T07:11:04.234Z,39.43
2016-08-04T07:12:04.214Z,39.52
2016-08-04T07:13:04.207Z,39.52
2016-08-04T07:14:04.182Z,39.66
2016-08-04T07:15:02.771Z,39.85
2016-08-04T07:16:04.145Z,40.01
2016-08-04T07:17:03.446Z,40.43
2016-08-04T07:18:03.424Z,40.7
2016-08-04T07:19:04.095Z,41.14
2016-08-04T07:20:04.080Z,41.44
2016-08-04T07:21:04.070Z,41.48
2016-08-04T07:22:03.357Z,41.67
2016-08-04T07:23:04.035Z,41.76
2016-08-04T07:24:02.633Z,41.99
2016-08-04T07:25:04.005Z,42.09
2016-08-04T07:26:03.990Z,42.16
2016-08-04T07:27:03.279Z,42.02
2016-08-04T07:28:03.269Z,42.11
2016-08-04T07:29:03.244Z,42.11
2016-08-04T07:30:03.934Z,42.18
2016-08-04T07:31:03.910Z,42.04
2016-08-04T07:32:03.904Z,42.06
2016-08-04T07:33:03.892Z,41.9
2016-08-04T07:34:03.867Z,41.99
2016-08-04T07:35:03.852Z,42.01
2016-08-04T07:36:03.146Z,42.28
2016-08-04T07:37:03.822Z,42.36
2016-08-04T07:38:03.805Z,42.45
2016-08-04T07:39:03.096Z,42.61
2016-08-04T07:40:03.082Z,42.89
2016-08-04T07:41:03.763Z,43.14
2016-08-04T07:42:03.746Z,43.47
2016-08-04T07:43:03.735Z,43.66
2016-08-04T07:44:03.725Z,43.64
2016-08-04T07:45:03.013Z,43.64
2016-08-04T07:46:03.692Z,43.66
2016-08-04T07:47:03.777Z,43.71
2016-08-04T07:48:03.662Z,44.13
2016-08-04T07:49:03.652Z,44.55
2016-08-04T07:50:03.633Z,44.8
2016-08-04T07:51:03.623Z,45.07
2016-08-04T07:52:03.609Z,45.38
2016-08-04T07:53:03.590Z,45.61
2016-08-04T07:54:03.582Z,45.74
2016-08-04T07:55:03.565Z,46.16
2016-08-04T07:56:03.549Z,46.23
2016-08-04T07:57:02.854Z,46.4
2016-08-04T07:58:03.524Z,46.65
2016-08-04T07:59:03.510Z,46.76
2016-08-04T08:00:03.499Z,46.64
2016-08-04T08:01:03.484Z,46.43
2016-08-04T08:02:02.779Z,46.37
2016-08-04T08:03:02.780Z,46.65
2016-08-04T08:04:02.753Z,46.61
2016-08-04T08:05:03.442Z,46.86
2016-08-04T08:06:02.735Z,47
2016-08-04T08:07:02.720Z,47.12
2016-08-04T08:08:03.404Z,47.26
2016-08-04T08:09:03.388Z,47.21
2016-08-04T08:10:03.383Z,47.29
2016-08-04T08:11:03.366Z,47.47
2016-08-04T08:12:03.353Z,47.56
2016-08-04T08:13:01.950Z,47.6
2016-08-04T08:14:03.329Z,47.73
2016-08-04T08:15:03.315Z,47.78
2016-08-04T08:16:03.325Z,47.87
2016-08-04T08:17:02.596Z,47.8
2016-08-04T08:18:01.884Z,47.44
2016-08-04T08:19:03.266Z,47.17
2016-08-04T08:20:03.258Z,47.02
2016-08-04T08:21:03.249Z,46.77
2016-08-04T08:22:03.238Z,46.61
2016-08-04T08:23:02.523Z,46.37
2016-08-04T08:24:03.216Z,46.21
2016-08-04T08:25:03.195Z,45.96
2016-08-04T08:26:02.502Z,45.61
2016-08-04T08:27:03.178Z,45.61
2016-08-04T08:28:02.476Z,45.57
2016-08-04T08:29:02.448Z,45.57
2016-08-04T08:30:03.142Z,45.74
2016-08-04T08:31:02.434Z,46.28
2016-08-04T08:32:02.420Z,46.83
2016-08-04T08:33:03.108Z,47.38
2016-08-04T08:34:02.387Z,47.56
2016-08-04T08:35:03.073Z,47.94
2016-08-04T08:36:03.064Z,48.09
2016-08-04T08:37:03.063Z,47.97
2016-08-04T08:38:02.341Z,47.66
2016-08-04T08:39:03.034Z,47.54
2016-08-04T08:40:02.329Z,47.51
2016-08-04T08:41:02.999Z,46.91
2016-08-04T08:42:02.990Z,46.28
2016-08-04T08:43:02.983Z,45.8
2016-08-04T08:44:02.976Z,45.85
2016-08-04T08:45:02.959Z,46.09
2016-08-04T08:46:02.939Z,46.76
2016-08-04T08:47:02.926Z,47.38
2016-08-04T08:48:02.918Z,47.76
2016-08-04T08:49:02.910Z,48.04
2016-08-04T08:50:02.210Z,48.37
2016-08-04T08:51:02.884Z,48.69
2016-08-04T08:52:02.872Z,48.86
2016-08-04T08:53:02.862Z,49.06
2016-08-04T08:54:02.845Z,49.31
2016-08-04T08:55:02.141Z,49.4
2016-08-04T08:56:02.828Z,49.63
2016-08-04T08:57:02.130Z,49.85
2016-08-04T08:58:02.820Z,49.77
2016-08-04T08:59:02.802Z,49.65
2016-08-04T09:00:02.086Z,49.48
2016-08-04T09:01:02.076Z,49.56
2016-08-04T09:02:02.763Z,49.67
2016-08-04T09:03:02.058Z,49.75
2016-08-04T09:04:02.054Z,49.91
2016-08-04T09:05:02.034Z,50.12
2016-08-04T09:06:02.728Z,50.5
2016-08-04T09:07:02.715Z,50.77
2016-08-04T09:08:02.006Z,51.19
2016-08-04T09:09:01.311Z,51.24
2016-08-04T09:10:01.987Z,51.31
2016-08-04T09:11:01.973Z,51.4
2016-08-04T09:12:01.973Z,51.34
2016-08-04T09:13:02.650Z,51.11
2016-08-04T09:14:02.645Z,50.66
2016-08-04T09:15:02.639Z,50.45
2016-08-04T09:16:02.625Z,50.38
2016-08-04T09:17:01.948Z,50.44
2016-08-04T09:18:02.614Z,50.78
2016-08-04T09:19:01.902Z,50.85
2016-08-04T09:20:02.588Z,51.11
2016-08-04T09:21:02.585Z,51.26
2016-08-04T09:22:02.575Z,51.34
2016-08-04T09:23:01.170Z,51.4
2016-08-04T09:24:01.862Z,51.49
2016-08-04T09:25:02.545Z,51.59
2016-08-04T09:26:02.535Z,51.66
2016-08-04T09:27:01.831Z,51.46
2016-08-04T09:28:02.518Z,51.47
2016-08-04T09:29:02.510Z,51.57
2016-08-04T09:30:02.503Z,51.81
2016-08-04T09:31:02.495Z,51.86
2016-08-04T09:32:01.788Z,52.03
2016-08-04T09:33:02.487Z,52.2
2016-08-04T09:34:02.469Z,52.07
2016-08-04T09:35:01.787Z,52.1
2016-08-04T09:36:02.459Z,52.24
2016-08-04T09:37:02.448Z,52.22
2016-08-04T09:38:01.755Z,52.2
2016-08-04T09:39:02.428Z,52.16
2016-08-04T09:40:01.726Z,52.04
2016-08-04T09:41:02.415Z,51.81
2016-08-04T09:42:02.406Z,51.71
2016-08-04T09:43:01.704Z,51.98
2016-08-04T09:44:02.403Z,52.23
2016-08-04T09:45:02.384Z,52.35
2016-08-04T09:46:02.375Z,52.28
2016-08-04T09:47:02.376Z,52.23
2016-08-04T09:48:02.360Z,52.15
2016-08-04T09:49:02.357Z,52.1
2016-08-04T09:50:02.351Z,52
2016-08-04T09:51:01.646Z,52.03
2016-08-04T09:52:01.178Z,51.78
2016-08-04T09:53:02.336Z,51.46
2016-08-04T09:54:01.630Z,51.36
2016-08-04T09:55:02.313Z,51.34
2016-08-04T09:56:02.308Z,51.38
2016-08-04T09:57:02.295Z,51.38
2016-08-04T09:58:02.286Z,51.47
2016-08-04T09:59:02.293Z,51.64
2016-08-04T10:00:01.575Z,51.65
2016-08-04T10:01:02.266Z,51.59
2016-08-04T10:02:02.254Z,51.43
2016-08-04T10:03:02.247Z,51.28
2016-08-04T10:04:01.545Z,51.01
2016-08-04T10:05:02.237Z,51.01
2016-08-04T10:06:02.227Z,50.85
2016-08-04T10:08:01.522Z,50.89
2016-08-04T10:09:02.203Z,50.82
2016-08-04T10:10:02.195Z,50.77
2016-08-04T10:11:00.793Z,50.44
2016-08-04T10:12:02.186Z,49.74
2016-08-04T10:13:02.169Z,49.58
2016-08-04T10:14:00.769Z,49.55
2016-08-04T10:15:01.457Z,49.6
2016-08-04T10:16:01.452Z,49.66
2016-08-04T10:17:00.757Z,49.5
2016-08-04T10:18:02.130Z,49.52
2016-08-04T10:19:00.735Z,49.56
2016-08-04T10:20:02.116Z,49.85
2016-08-04T10:21:02.102Z,50.13
2016-08-04T10:23:02.087Z,50.3
2016-08-04T10:24:02.078Z,50.01
2016-08-04T10:25:02.064Z,50.09
2016-08-04T10:26:01.363Z,50.1
2016-08-04T10:27:01.352Z,50.09
2016-08-04T10:28:02.042Z,50.1
2016-08-04T10:29:01.335Z,50.13
2016-08-04T10:30:02.021Z,50.16
2016-08-04T10:31:01.316Z,50.23
2016-08-04T10:32:02.002Z,50.15
2016-08-04T10:33:01.299Z,50.33
2016-08-04T10:34:01.287Z,50.51
2016-08-04T10:35:01.979Z,50.54
2016-08-04T10:36:01.970Z,50.63
2016-08-04T10:37:01.957Z,50.89
2016-08-04T10:38:01.948Z,50.96
2016-08-04T10:39:01.943Z,51.24
2016-08-04T10:40:01.936Z,51.24
2016-08-04T10:41:00.524Z,51.3
2016-08-04T10:42:01.916Z,51.27
2016-08-04T10:43:01.909Z,51.23
2016-08-04T10:44:01.203Z,51.02
2016-08-04T10:45:01.891Z,50.89
2016-08-04T10:46:01.879Z,50.93
2016-08-04T10:47:01.868Z,50.9
2016-08-04T10:48:01.873Z,50.83
2016-08-04T10:49:01.853Z,50.71
2016-08-04T10:50:01.149Z,50.48
2016-08-04T10:51:01.835Z,50.3
2016-08-04T10:52:01.133Z,50.15
2016-08-04T10:53:01.819Z,50.2
2016-08-04T10:54:01.813Z,50.51
2016-08-04T10:55:01.808Z,50.85
2016-08-04T10:56:01.108Z,51.14
2016-08-04T10:57:01.796Z,51.3
2016-08-04T10:58:01.777Z,51.58
2016-08-04T10:59:01.772Z,51.73
2016-08-04T11:00:01.760Z,51.97
2016-08-04T11:01:01.751Z,52.26
2016-08-04T11:02:01.743Z,52.6
2016-08-04T11:03:01.732Z,52.79
2016-08-04T11:04:01.721Z,52.86
2016-08-04T11:05:01.017Z,52.85
2016-08-04T11:06:01.009Z,52.61
2016-08-04T11:07:01.694Z,52.32
2016-08-04T11:08:00.996Z,51.84
2016-08-04T11:09:01.679Z,51.27
2016-08-04T11:10:01.667Z,50.61
2016-08-04T11:11:00.956Z,49.93
2016-08-04T11:12:01.643Z,49.4
2016-08-04T11:13:01.644Z,48.79
2016-08-04T11:14:00.926Z,48.2
2016-08-04T11:15:01.608Z,47.56
2016-08-04T11:16:00.903Z,47
2016-08-04T11:17:00.189Z,46.52
2016-08-04T11:18:00.876Z,46.05
2016-08-04T11:19:00.872Z,45.54
2016-08-04T11:20:00.155Z,45.16
2016-08-04T11:21:01.531Z,44.68
2016-08-04T11:22:01.525Z,44.14
2016-08-04T11:23:01.512Z,43.71
2016-08-04T11:24:00.805Z,43.15
2016-08-04T11:25:01.500Z,42.78
2016-08-04T11:26:01.469Z,42.2
2016-08-04T11:27:01.455Z,41.74
2016-08-04T11:28:01.455Z,41.26
2016-08-04T11:29:01.426Z,40.76
2016-08-04T11:30:01.422Z,40.18
2016-08-04T11:31:01.394Z,39.69
2016-08-04T11:32:00.679Z,39.17
2016-08-04T11:33:01.360Z,38.81
2016-08-04T11:34:00.652Z,38.37
2016-08-04T11:35:01.334Z,38.04
2016-08-04T11:36:01.311Z,37.56
2016-08-04T11:37:01.303Z,37.32
2016-08-04T11:38:00.579Z,36.93
2016-08-04T11:39:01.254Z,36.56
2016-08-04T11:40:00.540Z,36.32
2016-08-04T11:41:00.527Z,36.15
2016-08-04T11:42:01.204Z,35.87
2016-08-04T11:43:00.483Z,35.6
2016-08-04T11:44:01.163Z,35.44
2016-08-04T11:45:01.147Z,35.16
2016-08-04T11:46:01.128Z,35
2016-08-04T11:47:01.106Z,34.89
2016-08-04T11:48:01.091Z,34.75
2016-08-04T11:49:01.075Z,34.53
2016-08-04T11:50:00.347Z,34.3
2016-08-04T11:51:01.033Z,34.21
2016-08-04T11:52:01.005Z,34.06
2016-08-04T11:53:00.291Z,33.93
2016-08-04T11:54:00.968Z,33.71
2016-08-04T11:55:00.969Z,33.6
2016-08-04T11:56:00.925Z,33.54
2016-08-04T11:57:00.209Z,33.37
2016-08-04T11:58:00.887Z,33.39
2016-08-04T11:59:00.163Z,33.29
2016-08-04T12:00:00.840Z,33.21
2016-08-04T12:01:00.829Z,33.12
2016-08-04T12:02:00.801Z,33.07
2016-08-04T12:03:00.081Z,32.93
2016-08-04T12:04:00.764Z,32.79
2016-08-04T12:05:00.739Z,32.72
2016-08-04T12:06:00.714Z,32.72
2016-08-04T12:07:00.004Z,32.62
2016-08-04T12:08:00.673Z,32.62
2016-08-04T12:09:00.655Z,32.57
2016-08-04T12:10:00.629Z,32.5
2016-08-04T12:11:00.608Z,32.43
2016-08-04T12:12:00.587Z,32.38
2016-08-04T12:13:00.569Z,32.28
2016-08-04T12:14:00.541Z,32.22
2016-08-04T12:15:00.522Z,32.25
2016-08-04T12:16:00.494Z,32.08
2016-08-04T12:17:00.478Z,31.96
2016-08-04T12:18:00.457Z,31.99
2016-08-04T12:19:00.432Z,31.95
2016-08-04T12:20:00.408Z,31.84
2016-08-04T12:21:00.392Z,31.86
2016-08-04T12:21:59.692Z,31.8
2016-08-04T12:23:00.343Z,31.78
2016-08-04T12:24:00.326Z,31.7
2016-08-04T12:25:00.310Z,31.61
2016-08-04T12:25:58.882Z,31.43
2016-08-04T12:27:00.258Z,31.28
2016-08-04T12:28:00.229Z,31.26
2016-08-04T12:28:59.512Z,31.17
2016-08-04T12:29:59.489Z,31.12
2016-08-04T12:30:59.466Z,31.1
2016-08-04T12:31:59.446Z,31.07
2016-08-04T12:32:59.423Z,31.04
2016-08-04T12:34:00.094Z,31.01
2016-08-04T12:35:00.075Z,31.06
2016-08-04T12:36:00.060Z,31.04
2016-08-04T12:36:59.328Z,31.1
2016-08-04T12:38:00.002Z,31.09
2016-08-04T12:38:59.987Z,31.14
2016-08-04T12:39:59.262Z,31.13
2016-08-04T12:40:59.246Z,31.12
2016-08-04T12:41:59.915Z,31.13
2016-08-04T12:42:59.899Z,31.12
2016-08-04T12:43:59.871Z,31.13
2016-08-04T12:44:59.841Z,31.12
2016-08-04T12:45:59.125Z,31.04
2016-08-04T12:46:59.104Z,31.17
2016-08-04T12:47:59.795Z,31.13
2016-08-04T12:48:59.750Z,31.21
2016-08-04T12:49:59.736Z,31.17
2016-08-04T12:50:59.009Z,31.21
2016-08-04T12:51:58.987Z,31.26
2016-08-04T12:52:59.666Z,31.32
2016-08-04T12:53:58.942Z,31.28
2016-08-04T12:54:59.617Z,31.28
2016-08-04T12:55:59.592Z,31.28
2016-08-04T12:56:59.572Z,31.26
2016-08-04T12:57:58.869Z,31.25
2016-08-04T12:58:59.522Z,31.16
2016-08-04T12:59:59.502Z,31.2